Aviation Digital Data Service (ADDS)

Output produced by METARs form (1243 UTC 19 October 2017)
found at http://www.aviationweather.gov/adds/metars/
 
KBVI 191147Z 19005KT 10SM CLR 07/04 A3019
KBVI 191047Z 19004KT 10SM CLR 08/04 A3020
KBVI 190047Z 21004KT 10SM CLR 16/05 A3023 RMK LAST
KBVI 182347Z 17004KT 10SM CLR 16/05 A3023 RMK RUNWAY 10 IS IN USE
KBVI 182247Z 17004KT 10SM CLR 17/05 A3023 RMK RUNWAY 10 IS IN USE
KBVI 182147Z 17004KT 10SM CLR 20/05 A3022 RMK RUNWAY 10 IS IN USE
KBVI 182047Z 15005KT 10SM CLR 21/06 A3022 RMK RUNWAY 10 IS IN USE
KBVI 181947Z 19007KT 10SM CLR 22/06 A3024 RMK RUNWAY 10 IS IN USE
KBVI 181847Z 17005KT 10SM CLR 21/06 A3027 RMK RUNWAY 10 IS IN USE
KBVI 181747Z 15004KT 10SM CLR 20/06 A3030
KBVI 181647Z 20004KT 10SM CLR 19/06 A3033
KBVI 181547Z 20003KT 10SM CLR 18/07 A3035
KBVI 181447Z 00000KT 10SM CLR 14/07 A3035
KBVI 181347Z 00000KT 10SM CLR 11/05 A3036
KBVI 181247Z 00000KT 10SM CLR 08/05 A3035